createdAt,value
2023-01-12T00:02:26.628Z,99124.00
2023-01-12T00:04:55.335Z,99123.80
2023-01-12T00:07:25.759Z,99140.80
2023-01-12T00:09:53.407Z,99139.60
2023-01-12T00:12:24.128Z,99136.20
2023-01-12T00:14:54.506Z,99131.00
2023-01-12T00:17:26.465Z,99122.60
2023-01-12T00:19:55.354Z,99115.80
2023-01-12T00:22:24.874Z,99114.60
2023-01-12T00:24:52.691Z,99114.40
2023-01-12T00:27:23.410Z,99111.00
2023-01-12T00:29:51.417Z,99112.40
2023-01-12T00:32:21.456Z,99126.80
2023-01-12T00:34:49.536Z,99116.40
2023-01-12T00:37:19.487Z,99119.20
2023-01-12T00:40:01.373Z,99119.80
2023-01-12T00:42:48.978Z,99121.20
2023-01-12T00:45:22.857Z,99125.40
2023-01-12T00:47:53.630Z,99133.00
2023-01-12T00:50:22.396Z,99129.40
2023-01-12T00:52:51.140Z,99129.80
2023-01-12T00:55:19.324Z,99132.20
2023-01-12T00:57:48.361Z,99129.80
2023-01-12T01:00:17.985Z,99134.20
2023-01-12T01:02:46.885Z,99135.00
2023-01-12T01:05:20.635Z,99133.00
2023-01-12T01:07:48.375Z,99137.20
2023-01-12T01:10:17.568Z,99138.40
2023-01-12T01:12:45.525Z,99131.20
2023-01-12T01:15:13.525Z,99122.60
2023-01-12T01:17:41.435Z,99126.00
2023-01-12T01:20:10.952Z,99124.80
2023-01-12T01:22:39.148Z,99122.40
2023-01-12T01:25:07.847Z,99115.80
2023-01-12T01:27:36.093Z,99119.20
2023-01-12T01:30:06.940Z,99123.80
2023-01-12T01:32:34.654Z,99122.00
2023-01-12T01:35:05.010Z,99110.60
2023-01-12T01:37:35.136Z,99111.40
2023-01-12T01:40:06.846Z,99109.40
2023-01-12T01:42:35.818Z,99106.20
2023-01-12T01:45:09.397Z,99111.60
2023-01-12T01:47:44.230Z,99121.00
2023-01-12T01:50:35.418Z,99123.80
2023-01-12T01:53:08.156Z,99117.60
2023-01-12T01:55:51.792Z,99117.60
2023-01-12T01:58:29.621Z,99105.00
2023-01-12T02:00:58.797Z,99101.20
2023-01-12T02:03:30.637Z,99101.80
2023-01-12T02:06:00.630Z,99106.60
2023-01-12T02:09:02.881Z,99111.20
2023-01-12T02:11:49.582Z,99119.80
2023-01-12T02:14:37.233Z,99124.60
2023-01-12T02:17:24.246Z,99118.80
2023-01-12T02:20:42.832Z,99108.80
2023-01-12T02:23:22.771Z,99097.80
2023-01-12T02:26:17.543Z,99094.60
2023-01-12T02:29:17.411Z,99104.60
2023-01-12T02:32:36.039Z,99098.80
2023-01-12T02:35:33.247Z,99106.80
2023-01-12T02:38:25.841Z,99100.60
2023-01-12T02:41:00.309Z,99102.80
2023-01-12T02:43:36.485Z,99107.80
2023-01-12T02:46:32.484Z,99120.40
2023-01-12T02:49:09.995Z,99112.20
2023-01-12T02:51:50.081Z,99106.20
2023-01-12T02:54:21.610Z,99105.60
2023-01-12T02:56:57.360Z,99107.40
2023-01-12T02:59:31.503Z,99112.60
2023-01-12T03:02:11.145Z,99116.20
2023-01-12T03:04:40.192Z,99113.40
2023-01-12T03:07:30.169Z,99116.00
2023-01-12T03:10:51.769Z,99113.60
2023-01-12T03:13:23.263Z,99112.00
2023-01-12T03:15:56.736Z,99100.60
2023-01-12T03:18:38.336Z,99102.40
2023-01-12T03:21:33.878Z,99099.60
2023-01-12T03:24:15.888Z,99097.00
2023-01-12T03:26:50.672Z,99099.60
2023-01-12T03:29:36.166Z,99098.40
2023-01-12T03:32:06.653Z,99096.20
2023-01-12T03:34:36.587Z,99097.20
2023-01-12T03:37:25.723Z,99092.80
2023-01-12T03:40:22.865Z,99092.60
2023-01-12T03:43:03.817Z,99102.20
2023-01-12T03:45:48.102Z,99093.40
2023-01-12T03:48:23.593Z,99095.20
2023-01-12T03:51:00.085Z,99095.80
2023-01-12T03:53:32.364Z,99097.40
2023-01-12T03:56:08.330Z,99102.60
2023-01-12T03:58:37.336Z,99098.60
2023-01-12T04:01:06.077Z,99099.80
2023-01-12T04:03:34.257Z,99099.40
2023-01-12T04:06:01.956Z,99098.00
2023-01-12T04:08:30.077Z,99104.40
2023-01-12T04:10:59.335Z,99109.60
2023-01-12T04:13:27.061Z,99110.20
2023-01-12T04:15:54.833Z,99101.40
2023-01-12T04:18:25.044Z,99097.00
2023-01-12T04:20:52.785Z,99102.40
2023-01-12T04:23:20.437Z,99100.20
2023-01-12T04:25:49.543Z,99096.80
2023-01-12T04:28:17.852Z,99101.00
2023-01-12T04:30:47.269Z,99103.00
2023-01-12T04:33:15.181Z,99097.80
2023-01-12T04:35:46.841Z,99095.20
2023-01-12T04:38:16.800Z,99100.60
2023-01-12T04:40:44.943Z,99096.00
2023-01-12T04:43:12.671Z,99095.40
2023-01-12T04:45:43.783Z,99094.40
2023-01-12T04:48:15.011Z,99092.40
2023-01-12T04:50:44.911Z,99094.00
2023-01-12T04:53:14.115Z,99095.20
2023-01-12T04:55:44.196Z,99100.00
2023-01-12T04:58:12.050Z,99099.80
2023-01-12T05:00:40.230Z,99101.20
2023-01-12T05:03:15.006Z,99099.80
2023-01-12T05:05:45.095Z,99100.00
2023-01-12T05:08:33.848Z,99095.00
2023-01-12T05:11:04.495Z,99101.40
2023-01-12T05:13:33.484Z,99101.20
2023-01-12T05:16:28.798Z,99105.40
2023-01-12T05:18:57.947Z,99099.60
2023-01-12T05:21:25.772Z,99097.60
2023-01-12T05:23:53.768Z,99086.80
2023-01-12T05:26:21.790Z,99085.60
2023-01-12T05:28:52.765Z,99081.80
2023-01-12T05:31:21.775Z,99073.60
2023-01-12T05:33:49.812Z,99068.80
2023-01-12T05:36:18.205Z,99075.00
2023-01-12T05:38:46.427Z,99075.20
2023-01-12T05:41:14.849Z,99076.20
2023-01-12T05:43:55.261Z,99068.80
2023-01-12T05:46:33.360Z,99071.80
2023-01-12T05:49:01.275Z,99069.20
2023-01-12T05:51:30.931Z,99063.00
2023-01-12T05:54:03.588Z,99064.80
2023-01-12T05:56:33.207Z,99070.80
2023-01-12T05:59:04.549Z,99069.00
2023-01-12T06:01:32.466Z,99065.60
2023-01-12T06:04:01.850Z,99067.20
2023-01-12T06:06:31.674Z,99065.60
2023-01-12T06:09:01.653Z,99065.00
2023-01-12T06:11:48.666Z,99071.00
2023-01-12T06:14:16.720Z,99070.00
2023-01-12T06:16:46.342Z,99073.40
2023-01-12T06:19:14.710Z,99075.00
2023-01-12T06:21:44.573Z,99076.80
2023-01-12T06:24:12.335Z,99073.80
2023-01-12T06:26:40.427Z,99076.60
2023-01-12T06:29:09.840Z,99078.80
2023-01-12T06:31:38.824Z,99081.80
2023-01-12T06:34:08.146Z,99088.00
2023-01-12T06:36:36.636Z,99088.00
2023-01-12T06:39:04.443Z,99097.80
2023-01-12T06:41:54.639Z,99098.20
2023-01-12T06:44:22.432Z,99089.00
2023-01-12T06:46:50.435Z,99098.60
2023-01-12T06:49:18.594Z,99099.40
2023-01-12T06:51:51.528Z,99097.40
2023-01-12T06:54:19.425Z,99108.80
2023-01-12T06:56:47.480Z,99106.60
2023-01-12T06:59:15.348Z,99098.60
2023-01-12T07:01:44.760Z,99093.60
2023-01-12T07:04:12.947Z,99090.00
2023-01-12T07:06:41.149Z,99091.20
2023-01-12T07:09:09.644Z,99089.80
2023-01-12T07:11:38.577Z,99091.20
2023-01-12T07:14:09.149Z,99088.40
2023-01-12T07:16:38.455Z,99087.80
2023-01-12T07:19:06.551Z,99088.40
2023-01-12T07:21:34.613Z,99093.60
2023-01-12T07:24:02.585Z,99094.00
2023-01-12T07:26:30.591Z,99101.80
2023-01-12T07:28:59.071Z,99104.00
2023-01-12T07:31:28.002Z,99103.20
2023-01-12T07:33:57.915Z,99106.60
2023-01-12T07:36:26.843Z,99110.20
2023-01-12T07:38:56.056Z,99106.00
2023-01-12T07:41:46.361Z,99105.40
2023-01-12T07:44:15.850Z,99107.60
2023-01-12T07:46:45.643Z,99102.60
2023-01-12T07:49:14.559Z,99109.80
2023-01-12T07:51:42.563Z,99115.00
2023-01-12T07:54:10.624Z,99109.20
2023-01-12T07:56:38.822Z,99103.00
2023-01-12T07:59:07.109Z,99102.60
2023-01-12T08:01:36.861Z,99109.40
2023-01-12T08:04:06.551Z,99108.40
2023-01-12T08:06:36.100Z,99109.20
2023-01-12T08:09:04.443Z,99109.40
2023-01-12T08:11:32.307Z,99116.20
2023-01-12T08:14:02.265Z,99112.20
2023-01-12T08:16:43.511Z,99118.60
2023-01-12T08:19:21.675Z,99123.00
2023-01-12T08:21:58.704Z,99111.80
2023-01-12T08:24:35.761Z,99125.80
2023-01-12T08:27:07.199Z,99126.80
2023-01-12T08:29:44.496Z,99132.00
2023-01-12T08:32:18.006Z,99137.00
2023-01-12T08:34:52.961Z,99136.80
2023-01-12T08:37:23.726Z,99139.60
2023-01-12T08:39:54.256Z,99131.20
2023-01-12T08:42:26.402Z,99127.60
2023-01-12T08:44:55.188Z,99146.20
2023-01-12T08:47:30.564Z,99150.60
2023-01-12T08:50:01.094Z,99148.60
2023-01-12T08:52:34.754Z,99149.60
2023-01-12T08:55:04.590Z,99152.20
2023-01-12T08:57:32.405Z,99156.60
2023-01-12T09:00:04.156Z,99152.60
2023-01-12T09:02:32.777Z,99152.40
2023-01-12T09:05:00.593Z,99149.40
2023-01-12T09:07:33.597Z,99155.00
2023-01-12T09:10:01.431Z,99153.00
2023-01-12T09:12:29.097Z,99150.40
2023-01-12T09:14:57.960Z,99146.80
2023-01-12T09:17:26.628Z,99142.00
2023-01-12T09:19:57.728Z,99145.40
2023-01-12T09:22:26.528Z,99141.20
2023-01-12T09:24:55.383Z,99141.60
2023-01-12T09:27:23.222Z,99135.40
2023-01-12T09:29:52.056Z,99133.80
2023-01-12T09:32:25.964Z,99137.40
2023-01-12T09:34:59.715Z,99141.80
2023-01-12T09:37:28.665Z,99146.00
2023-01-12T09:39:56.534Z,99145.80
2023-01-12T09:42:43.271Z,99146.40
2023-01-12T09:45:41.385Z,99146.80
2023-01-12T09:48:14.699Z,99147.00
2023-01-12T09:50:56.396Z,99146.40
2023-01-12T09:53:32.901Z,99146.00
2023-01-12T09:56:15.359Z,99147.80
2023-01-12T09:59:37.128Z,99146.20
2023-01-12T10:02:12.997Z,99156.60
2023-01-12T10:04:46.069Z,99157.20
2023-01-12T10:07:18.860Z,99151.00
2023-01-12T10:09:46.647Z,99151.00
2023-01-12T10:12:32.811Z,99150.00
2023-01-12T10:15:03.545Z,99151.60
2023-01-12T10:17:56.733Z,99157.00
2023-01-12T10:20:43.769Z,99151.80
2023-01-12T10:23:20.399Z,99149.40
2023-01-12T10:26:20.456Z,99143.20
2023-01-12T10:28:53.655Z,99145.00
2023-01-12T10:31:26.432Z,99145.80
2023-01-12T10:34:11.887Z,99151.20
2023-01-12T10:36:55.737Z,99146.80
2023-01-12T10:39:26.684Z,99143.40
2023-01-12T10:42:39.045Z,99144.80
2023-01-12T10:45:20.986Z,99143.00
2023-01-12T10:47:54.203Z,99148.00
2023-01-12T10:50:35.154Z,99146.80
2023-01-12T10:53:15.605Z,99142.00
2023-01-12T10:55:45.439Z,99137.60
2023-01-12T10:58:34.264Z,99135.40
2023-01-12T11:01:07.857Z,99141.40
2023-01-12T11:03:43.032Z,99136.00
2023-01-12T11:06:24.384Z,99135.80
2023-01-12T11:08:52.239Z,99138.40
2023-01-12T11:11:32.208Z,99147.60
2023-01-12T11:14:04.243Z,99142.00
2023-01-12T11:16:48.614Z,99140.00
2023-01-12T11:19:30.673Z,99146.00
2023-01-12T11:22:18.501Z,99144.80
2023-01-12T11:25:11.172Z,99143.40
2023-01-12T11:27:51.141Z,99139.80
2023-01-12T11:30:34.608Z,99135.80
2023-01-12T11:33:08.961Z,99141.00
2023-01-12T11:36:06.745Z,99139.60
2023-01-12T11:38:51.487Z,99141.60
2023-01-12T11:41:40.689Z,99145.80
2023-01-12T11:44:54.004Z,99152.20
2023-01-12T11:47:31.793Z,99146.60
2023-01-12T11:50:10.360Z,99144.80
2023-01-12T11:52:39.473Z,99141.80
2023-01-12T11:55:15.649Z,99140.60
2023-01-12T11:57:56.845Z,99139.60
2023-01-12T12:00:44.808Z,99137.60
2023-01-12T12:03:47.639Z,99137.40
2023-01-12T12:06:35.143Z,99134.40
2023-01-12T12:10:02.943Z,99123.60
2023-01-12T12:13:11.505Z,99130.40
2023-01-12T12:15:46.103Z,99132.40
2023-01-12T12:18:39.112Z,99132.60
2023-01-12T12:21:44.416Z,99126.80
2023-01-12T12:24:56.227Z,99126.60
2023-01-12T12:27:42.277Z,99128.40
2023-01-12T12:30:38.140Z,99132.00
2023-01-12T12:33:51.782Z,99133.60
2023-01-12T12:37:11.532Z,99126.00
2023-01-12T12:40:16.669Z,99125.20
2023-01-12T12:43:20.042Z,99128.80
2023-01-12T12:46:15.258Z,99129.60
2023-01-12T12:49:01.846Z,99129.00
2023-01-12T12:51:34.836Z,99130.20
2023-01-12T12:54:11.301Z,99127.80
2023-01-12T12:56:41.768Z,99127.40
2023-01-12T12:59:57.101Z,99127.20
2023-01-12T13:02:55.861Z,99119.40
2023-01-12T13:05:49.292Z,99122.00
2023-01-12T13:08:27.430Z,99126.80
2023-01-12T13:10:58.994Z,99125.80
2023-01-12T13:13:34.997Z,99120.40
2023-01-12T13:16:20.535Z,99120.80
2023-01-12T13:18:51.423Z,99119.00
2023-01-12T13:21:26.520Z,99123.00
2023-01-12T13:24:18.363Z,99127.20
2023-01-12T13:26:55.145Z,99124.60
2023-01-12T13:29:23.045Z,99119.80
2023-01-12T13:31:56.758Z,99119.80
2023-01-12T13:34:37.078Z,99119.00
2023-01-12T13:37:26.672Z,99118.80
2023-01-12T13:40:14.123Z,99125.00
2023-01-12T13:43:04.527Z,99121.60
2023-01-12T13:45:34.702Z,99114.00
2023-01-12T13:48:06.840Z,99112.00
2023-01-12T13:50:46.013Z,99113.40
2023-01-12T13:53:26.009Z,99118.00
2023-01-12T13:56:04.836Z,99113.60
2023-01-12T13:58:43.528Z,99112.20
2023-01-12T14:01:28.683Z,99115.40
2023-01-12T14:04:20.221Z,99110.80
2023-01-12T14:07:23.021Z,99112.20
2023-01-12T14:10:34.783Z,99114.80
2023-01-12T14:13:41.943Z,99110.40
2023-01-12T14:16:34.248Z,99109.40
2023-01-12T14:19:25.423Z,99104.80
2023-01-12T14:22:05.098Z,99108.60
2023-01-12T14:24:33.163Z,99110.40
2023-01-12T14:27:23.144Z,99111.00
2023-01-12T14:29:51.460Z,99111.20
2023-01-12T14:32:22.747Z,99114.80
2023-01-12T14:34:55.419Z,99112.00
2023-01-12T14:37:34.192Z,99112.40
2023-01-12T14:40:02.333Z,99116.20
2023-01-12T14:42:50.864Z,99117.60
2023-01-12T14:45:37.312Z,99113.00
2023-01-12T14:48:30.528Z,99113.40
2023-01-12T14:51:37.853Z,99119.00
2023-01-12T14:54:08.652Z,99111.40
2023-01-12T14:56:50.850Z,99111.40
2023-01-12T14:59:31.311Z,99111.00
2023-01-12T15:02:34.424Z,99109.20
2023-01-12T15:05:04.589Z,99108.60
2023-01-12T15:07:55.574Z,99108.80
2023-01-12T15:10:39.680Z,99109.00
2023-01-12T15:13:34.841Z,99102.80
2023-01-12T15:16:23.866Z,99099.60
2023-01-12T15:19:12.070Z,99101.40
2023-01-12T15:22:05.592Z,99103.80
2023-01-12T15:24:54.682Z,99105.80
2023-01-12T15:27:23.828Z,99102.40
2023-01-12T15:29:52.383Z,99105.00
2023-01-12T15:32:46.150Z,99100.00
2023-01-12T15:35:21.386Z,99095.00
2023-01-12T15:37:52.981Z,99096.60
2023-01-12T15:40:24.693Z,99095.00
2023-01-12T15:42:53.636Z,99094.40
2023-01-12T15:45:39.826Z,99092.20
2023-01-12T15:48:12.487Z,99095.40
2023-01-12T15:50:45.303Z,99105.00
2023-01-12T15:53:23.497Z,99108.00
2023-01-12T15:55:51.415Z,99107.60
2023-01-12T15:58:19.811Z,99099.20
2023-01-12T16:00:48.153Z,99093.80
2023-01-12T16:03:48.947Z,99103.00
2023-01-12T16:06:07.002Z,99105.60
2023-01-12T16:08:35.045Z,99107.60
2023-01-12T16:11:12.573Z,99107.60
2023-01-12T16:13:41.327Z,99104.80
2023-01-12T16:16:16.416Z,99102.00
2023-01-12T16:18:45.014Z,99106.20
2023-01-12T16:21:17.737Z,99099.60
2023-01-12T16:23:46.359Z,99097.80
2023-01-12T16:26:14.303Z,99098.80
2023-01-12T16:28:45.410Z,99104.40
2023-01-12T16:31:16.088Z,99106.60
2023-01-12T16:33:45.089Z,99102.20
2023-01-12T16:36:17.574Z,99099.80
2023-01-12T16:38:45.549Z,99103.60
2023-01-12T16:41:21.172Z,99110.80
2023-01-12T16:43:52.267Z,99110.80
2023-01-12T16:46:22.439Z,99104.40
2023-01-12T16:48:52.636Z,99105.00
2023-01-12T16:51:21.016Z,99111.80
2023-01-12T16:53:51.470Z,99104.80
2023-01-12T16:56:19.723Z,99108.00
2023-01-12T16:58:48.609Z,99110.20
2023-01-12T17:01:22.076Z,99114.80
2023-01-12T17:03:51.667Z,99112.60
2023-01-12T17:06:21.829Z,99116.20
2023-01-12T17:08:49.865Z,99113.60
2023-01-12T17:11:20.923Z,99115.00
2023-01-12T17:13:58.354Z,99115.00
2023-01-12T17:16:30.994Z,99110.60
2023-01-12T17:18:59.312Z,99107.60
2023-01-12T17:21:28.918Z,99110.20
2023-01-12T17:23:57.243Z,99110.00
2023-01-12T17:26:25.093Z,99114.40
2023-01-12T17:28:56.898Z,99108.20
2023-01-12T17:31:25.386Z,99108.00
2023-01-12T17:33:53.918Z,99107.20
2023-01-12T17:36:22.154Z,99111.40
2023-01-12T17:38:50.419Z,99111.00
2023-01-12T17:41:37.597Z,99110.00
2023-01-12T17:44:07.672Z,99106.00
2023-01-12T17:46:36.125Z,99107.60
2023-01-12T17:49:08.124Z,99108.20
2023-01-12T17:51:37.599Z,99107.40
2023-01-12T17:54:09.220Z,99104.60
2023-01-12T17:56:38.365Z,99102.00
2023-01-12T17:59:06.687Z,99101.60
2023-01-12T18:01:36.759Z,99095.40
2023-01-12T18:04:05.825Z,99095.40
2023-01-12T18:06:33.680Z,99089.20
2023-01-12T18:09:11.852Z,99086.80
2023-01-12T18:11:41.406Z,99087.00
2023-01-12T18:14:10.231Z,99084.60
2023-01-12T18:16:38.809Z,99079.60
2023-01-12T18:19:11.207Z,99076.20
2023-01-12T18:21:40.153Z,99084.00
2023-01-12T18:24:09.322Z,99084.20
2023-01-12T18:26:38.122Z,99084.60
2023-01-12T18:29:07.674Z,99084.80
2023-01-12T18:31:42.163Z,99088.80
2023-01-12T18:34:11.085Z,99090.60
2023-01-12T18:36:41.661Z,99093.20
2023-01-12T18:39:19.701Z,99092.60
2023-01-12T18:42:09.424Z,99098.40
2023-01-12T18:44:40.478Z,99098.00
2023-01-12T18:47:27.939Z,99102.40
2023-01-12T18:49:58.175Z,99098.20
2023-01-12T18:52:44.698Z,99100.80
2023-01-12T18:55:12.558Z,99098.80
2023-01-12T18:57:40.760Z,99093.00
2023-01-12T19:00:17.857Z,99094.00
2023-01-12T19:02:52.743Z,99094.00
2023-01-12T19:05:24.269Z,99091.20
2023-01-12T19:08:05.225Z,99096.00
2023-01-12T19:10:34.291Z,99092.20
2023-01-12T19:13:22.118Z,99090.60
2023-01-12T19:16:09.012Z,99092.40
2023-01-12T19:18:38.854Z,99097.20
2023-01-12T19:21:33.892Z,99096.20
2023-01-12T19:24:20.311Z,99101.00
2023-01-12T19:27:07.543Z,99096.00
2023-01-12T19:29:35.621Z,99091.40
2023-01-12T19:32:03.892Z,99095.60
2023-01-12T19:34:32.795Z,99094.60
2023-01-12T19:37:00.824Z,99092.20
2023-01-12T19:39:52.354Z,99088.80
2023-01-12T19:42:46.323Z,99092.80
2023-01-12T19:45:15.165Z,99087.80
2023-01-12T19:47:45.403Z,99085.40
2023-01-12T19:50:14.834Z,99086.80
2023-01-12T19:52:48.427Z,99091.80
2023-01-12T19:55:16.812Z,99086.40
2023-01-12T19:57:44.578Z,99086.20
2023-01-12T20:00:16.380Z,99085.60
2023-01-12T20:02:45.836Z,99095.80
2023-01-12T20:05:22.036Z,99094.40
2023-01-12T20:07:54.669Z,99093.80
2023-01-12T20:10:25.500Z,99094.60
2023-01-12T20:12:54.745Z,99093.00
2023-01-12T20:15:22.893Z,99097.80
2023-01-12T20:17:54.372Z,99091.60
2023-01-12T20:20:22.783Z,99090.00
2023-01-12T20:22:50.708Z,99095.80
2023-01-12T20:25:20.690Z,99093.20
2023-01-12T20:27:51.553Z,99095.00
2023-01-12T20:30:36.932Z,99091.20
2023-01-12T20:33:07.371Z,99089.60
2023-01-12T20:35:38.652Z,99084.80
2023-01-12T20:38:13.259Z,99084.80
2023-01-12T20:40:44.940Z,99078.60
2023-01-12T20:43:15.908Z,99079.00
2023-01-12T20:45:46.672Z,99073.60
2023-01-12T20:48:15.473Z,99074.60
2023-01-12T20:50:47.423Z,99077.20
2023-01-12T20:53:19.074Z,99078.80
2023-01-12T20:55:52.041Z,99079.20
2023-01-12T20:58:20.377Z,99076.20
2023-01-12T21:00:52.154Z,99073.20
2023-01-12T21:03:22.790Z,99072.00
2023-01-12T21:05:51.271Z,99072.00
2023-01-12T21:08:21.347Z,99072.40
2023-01-12T21:10:53.709Z,99067.80
2023-01-12T21:13:22.989Z,99068.80
2023-01-12T21:16:07.072Z,99071.40
2023-01-12T21:18:35.779Z,99076.20
2023-01-12T21:21:06.304Z,99076.00
2023-01-12T21:23:42.671Z,99079.80
2023-01-12T21:26:24.715Z,99074.20
2023-01-12T21:28:52.615Z,99079.20
2023-01-12T21:31:23.026Z,99070.60
2023-01-12T21:33:51.465Z,99074.60
2023-01-12T21:36:19.912Z,99076.00
2023-01-12T21:38:52.174Z,99074.20
2023-01-12T21:41:21.891Z,99075.20
2023-01-12T21:43:53.324Z,99070.60
2023-01-12T21:46:24.732Z,99062.60
2023-01-12T21:48:52.944Z,99061.00
2023-01-12T21:51:20.826Z,99062.00
2023-01-12T21:53:48.566Z,99063.80
2023-01-12T21:56:17.257Z,99069.20
2023-01-12T21:58:46.605Z,99067.80
2023-01-12T22:01:17.473Z,99074.00
2023-01-12T22:03:45.596Z,99078.40
2023-01-12T22:06:13.593Z,99082.20
2023-01-12T22:08:43.530Z,99091.80
2023-01-12T22:11:18.352Z,99085.00
2023-01-12T22:13:48.645Z,99082.00
2023-01-12T22:16:17.442Z,99082.20
2023-01-12T22:18:49.730Z,99090.40
2023-01-12T22:21:20.359Z,99094.20
2023-01-12T22:23:50.222Z,99089.40
2023-01-12T22:26:19.156Z,99087.40
2023-01-12T22:28:49.399Z,99086.20
2023-01-12T22:31:21.377Z,99083.40
2023-01-12T22:33:58.721Z,99083.00
2023-01-12T22:36:26.540Z,99073.40
2023-01-12T22:38:55.250Z,99064.80
2023-01-12T22:41:24.793Z,99065.60
2023-01-12T22:43:53.430Z,99067.00
2023-01-12T22:46:25.538Z,99063.60
2023-01-12T22:48:59.712Z,99064.80
2023-01-12T22:51:29.782Z,99060.80
2023-01-12T22:53:58.106Z,99054.60
2023-01-12T22:56:26.418Z,99051.20
2023-01-12T22:58:57.063Z,99046.60
2023-01-12T23:01:26.766Z,99050.60
2023-01-12T23:03:59.660Z,99047.80
2023-01-12T23:06:28.537Z,99046.00
2023-01-12T23:08:56.363Z,99047.00
2023-01-12T23:11:28.261Z,99033.00
2023-01-12T23:13:57.049Z,99022.80
2023-01-12T23:16:26.402Z,99025.20
2023-01-12T23:18:55.476Z,99027.80
2023-01-12T23:21:28.268Z,99025.80
2023-01-12T23:24:00.132Z,99024.40
2023-01-12T23:26:32.155Z,99022.20
2023-01-12T23:29:03.023Z,99020.40
2023-01-12T23:31:33.733Z,99022.40
2023-01-12T23:34:02.973Z,99017.80
2023-01-12T23:36:31.492Z,99021.60
2023-01-12T23:39:07.943Z,99022.60
2023-01-12T23:41:38.262Z,99018.60
2023-01-12T23:44:10.250Z,99021.40
2023-01-12T23:46:42.775Z,99023.20
2023-01-12T23:49:11.540Z,99028.40
2023-01-12T23:51:40.627Z,99028.20
2023-01-12T23:54:17.275Z,99027.60
2023-01-12T23:56:45.062Z,99033.00
2023-01-12T23:59:14.357Z,99029.60
